sensor_id;sensor_type;location;lat;lon;timestamp;P1;durP1;ratioP1;P2;durP2;ratioP2
25946;SDS011;13745;51.470;9.894;2022-07-21T00:01:42;2.58;;;1.60;;
25946;SDS011;13745;51.470;9.894;2022-07-21T00:04:28;2.55;;;1.92;;
25946;SDS011;13745;51.470;9.894;2022-07-21T00:07:14;2.25;;;1.80;;
25946;SDS011;13745;51.470;9.894;2022-07-21T00:10:01;2.00;;;1.80;;
25946;SDS011;13745;51.470;9.894;2022-07-21T00:12:48;4.78;;;1.60;;
25946;SDS011;13745;51.470;9.894;2022-07-21T00:15:34;1.90;;;1.73;;
25946;SDS011;13745;51.470;9.894;2022-07-21T00:18:20;2.25;;;1.70;;
25946;SDS011;13745;51.470;9.894;2022-07-21T00:21:06;3.05;;;1.80;;
25946;SDS011;13745;51.470;9.894;2022-07-21T00:23:51;2.75;;;1.58;;
25946;SDS011;13745;51.470;9.894;2022-07-21T00:26:39;2.25;;;1.88;;
25946;SDS011;13745;51.470;9.894;2022-07-21T00:29:26;2.30;;;1.85;;
25946;SDS011;13745;51.470;9.894;2022-07-21T00:32:12;4.07;;;1.95;;
25946;SDS011;13745;51.470;9.894;2022-07-21T00:34:58;1.90;;;1.60;;
25946;SDS011;13745;51.470;9.894;2022-07-21T00:37:44;2.35;;;1.73;;
25946;SDS011;13745;51.470;9.894;2022-07-21T00:40:30;3.10;;;1.75;;
25946;SDS011;13745;51.470;9.894;2022-07-21T00:43:17;5.78;;;2.00;;
25946;SDS011;13745;51.470;9.894;2022-07-21T00:46:03;7.53;;;2.47;;
25946;SDS011;13745;51.470;9.894;2022-07-21T00:48:49;3.10;;;2.35;;
25946;SDS011;13745;51.470;9.894;2022-07-21T00:51:35;4.13;;;2.28;;
25946;SDS011;13745;51.470;9.894;2022-07-21T00:54:21;3.17;;;2.60;;
25946;SDS011;13745;51.470;9.894;2022-07-21T00:57:07;3.28;;;2.78;;
25946;SDS011;13745;51.470;9.894;2022-07-21T00:59:55;2.85;;;2.40;;
25946;SDS011;13745;51.470;9.894;2022-07-21T01:02:41;3.75;;;2.50;;
25946;SDS011;13745;51.470;9.894;2022-07-21T01:05:27;7.03;;;2.78;;
25946;SDS011;13745;51.470;9.894;2022-07-21T01:08:14;5.97;;;2.80;;
25946;SDS011;13745;51.470;9.894;2022-07-21T01:11:00;8.38;;;2.40;;
25946;SDS011;13745;51.470;9.894;2022-07-21T01:13:46;3.47;;;2.45;;
25946;SDS011;13745;51.470;9.894;2022-07-21T01:16:33;4.43;;;3.15;;
25946;SDS011;13745;51.470;9.894;2022-07-21T01:19:19;5.43;;;2.95;;
25946;SDS011;13745;51.470;9.894;2022-07-21T01:22:06;3.60;;;2.85;;
25946;SDS011;13745;51.470;9.894;2022-07-21T01:24:52;4.22;;;2.70;;
25946;SDS011;13745;51.470;9.894;2022-07-21T01:27:38;4.50;;;3.05;;
25946;SDS011;13745;51.470;9.894;2022-07-21T01:30:24;4.03;;;3.22;;
25946;SDS011;13745;51.470;9.894;2022-07-21T01:33:10;5.20;;;3.92;;
25946;SDS011;13745;51.470;9.894;2022-07-21T01:35:56;4.57;;;3.40;;
25946;SDS011;13745;51.470;9.894;2022-07-21T01:38:43;4.50;;;3.40;;
25946;SDS011;13745;51.470;9.894;2022-07-21T01:41:51;5.45;;;3.53;;
25946;SDS011;13745;51.470;9.894;2022-07-21T01:44:37;6.60;;;3.42;;
25946;SDS011;13745;51.470;9.894;2022-07-21T01:47:23;4.07;;;3.05;;
25946;SDS011;13745;51.470;9.894;2022-07-21T01:50:10;8.05;;;3.90;;
25946;SDS011;13745;51.470;9.894;2022-07-21T01:52:56;5.65;;;3.08;;
25946;SDS011;13745;51.470;9.894;2022-07-21T01:55:45;4.60;;;3.72;;
25946;SDS011;13745;51.470;9.894;2022-07-21T01:58:31;3.53;;;3.22;;
25946;SDS011;13745;51.470;9.894;2022-07-21T02:01:17;6.53;;;3.50;;
25946;SDS011;13745;51.470;9.894;2022-07-21T02:04:03;3.95;;;3.55;;
25946;SDS011;13745;51.470;9.894;2022-07-21T02:06:50;4.00;;;3.40;;
25946;SDS011;13745;51.470;9.894;2022-07-21T02:09:36;5.38;;;3.53;;
25946;SDS011;13745;51.470;9.894;2022-07-21T02:12:23;6.78;;;3.95;;
25946;SDS011;13745;51.470;9.894;2022-07-21T02:15:09;8.07;;;4.15;;
25946;SDS011;13745;51.470;9.894;2022-07-21T02:17:55;7.68;;;3.65;;
25946;SDS011;13745;51.470;9.894;2022-07-21T02:20:41;5.53;;;4.28;;
25946;SDS011;13745;51.470;9.894;2022-07-21T02:23:29;8.05;;;4.65;;
25946;SDS011;13745;51.470;9.894;2022-07-21T02:26:15;5.80;;;4.40;;
25946;SDS011;13745;51.470;9.894;2022-07-21T02:29:03;6.55;;;4.43;;
25946;SDS011;13745;51.470;9.894;2022-07-21T02:31:49;6.45;;;4.50;;
25946;SDS011;13745;51.470;9.894;2022-07-21T02:34:35;5.28;;;4.18;;
25946;SDS011;13745;51.470;9.894;2022-07-21T02:37:21;6.90;;;4.63;;
25946;SDS011;13745;51.470;9.894;2022-07-21T02:40:07;5.03;;;4.53;;
25946;SDS011;13745;51.470;9.894;2022-07-21T02:42:53;7.38;;;5.13;;
25946;SDS011;13745;51.470;9.894;2022-07-21T02:45:40;7.35;;;5.07;;
25946;SDS011;13745;51.470;9.894;2022-07-21T02:48:28;5.32;;;4.85;;
25946;SDS011;13745;51.470;9.894;2022-07-21T02:51:13;8.52;;;5.25;;
25946;SDS011;13745;51.470;9.894;2022-07-21T02:53:59;9.52;;;5.20;;
25946;SDS011;13745;51.470;9.894;2022-07-21T02:56:45;7.72;;;5.93;;
25946;SDS011;13745;51.470;9.894;2022-07-21T02:59:31;7.60;;;5.80;;
25946;SDS011;13745;51.470;9.894;2022-07-21T03:02:18;6.90;;;6.10;;
25946;SDS011;13745;51.470;9.894;2022-07-21T03:05:05;8.30;;;6.30;;
25946;SDS011;13745;51.470;9.894;2022-07-21T03:07:51;7.40;;;6.13;;
25946;SDS011;13745;51.470;9.894;2022-07-21T03:10:38;7.03;;;5.88;;
25946;SDS011;13745;51.470;9.894;2022-07-21T03:13:25;8.13;;;6.25;;
25946;SDS011;13745;51.470;9.894;2022-07-21T03:16:11;10.77;;;7.60;;
25946;SDS011;13745;51.470;9.894;2022-07-21T03:18:58;7.28;;;6.55;;
25946;SDS011;13745;51.470;9.894;2022-07-21T03:21:45;8.15;;;6.50;;
25946;SDS011;13745;51.470;9.894;2022-07-21T03:24:31;11.40;;;8.07;;
25946;SDS011;13745;51.470;9.894;2022-07-21T03:27:17;12.55;;;8.57;;
25946;SDS011;13745;51.470;9.894;2022-07-21T03:30:06;8.85;;;7.28;;
25946;SDS011;13745;51.470;9.894;2022-07-21T03:32:53;8.70;;;7.47;;
25946;SDS011;13745;51.470;9.894;2022-07-21T03:35:40;11.55;;;8.05;;
25946;SDS011;13745;51.470;9.894;2022-07-21T03:38:26;8.43;;;7.30;;
25946;SDS011;13745;51.470;9.894;2022-07-21T03:41:13;9.68;;;7.63;;
25946;SDS011;13745;51.470;9.894;2022-07-21T03:43:58;8.20;;;7.25;;
25946;SDS011;13745;51.470;9.894;2022-07-21T03:46:44;12.60;;;7.95;;
25946;SDS011;13745;51.470;9.894;2022-07-21T03:49:30;9.10;;;7.53;;
25946;SDS011;13745;51.470;9.894;2022-07-21T03:52:17;9.02;;;7.10;;
25946;SDS011;13745;51.470;9.894;2022-07-21T03:55:04;7.47;;;6.72;;
25946;SDS011;13745;51.470;9.894;2022-07-21T03:57:53;9.68;;;6.70;;
25946;SDS011;13745;51.470;9.894;2022-07-21T04:00:41;7.60;;;6.95;;
25946;SDS011;13745;51.470;9.894;2022-07-21T04:03:28;10.82;;;6.82;;
25946;SDS011;13745;51.470;9.894;2022-07-21T04:06:15;11.00;;;6.50;;
25946;SDS011;13745;51.470;9.894;2022-07-21T04:09:02;6.55;;;5.90;;
25946;SDS011;13745;51.470;9.894;2022-07-21T04:11:48;8.20;;;6.57;;
25946;SDS011;13745;51.470;9.894;2022-07-21T04:14:34;7.65;;;6.70;;
25946;SDS011;13745;51.470;9.894;2022-07-21T04:17:20;8.43;;;7.20;;
25946;SDS011;13745;51.470;9.894;2022-07-21T04:20:06;10.38;;;6.63;;
25946;SDS011;13745;51.470;9.894;2022-07-21T04:22:53;7.57;;;6.78;;
25946;SDS011;13745;51.470;9.894;2022-07-21T04:25:41;10.65;;;6.82;;
25946;SDS011;13745;51.470;9.894;2022-07-21T04:28:26;16.15;;;6.95;;
25946;SDS011;13745;51.470;9.894;2022-07-21T04:31:12;7.57;;;6.40;;
25946;SDS011;13745;51.470;9.894;2022-07-21T04:33:58;8.68;;;6.40;;
25946;SDS011;13745;51.470;9.894;2022-07-21T04:36:44;7.35;;;5.88;;
25946;SDS011;13745;51.470;9.894;2022-07-21T04:39:30;8.43;;;6.22;;
25946;SDS011;13745;51.470;9.894;2022-07-21T04:42:17;7.20;;;5.85;;
25946;SDS011;13745;51.470;9.894;2022-07-21T04:45:03;7.50;;;6.47;;
25946;SDS011;13745;51.470;9.894;2022-07-21T04:47:52;8.32;;;6.20;;
25946;SDS011;13745;51.470;9.894;2022-07-21T04:50:39;8.57;;;6.82;;
25946;SDS011;13745;51.470;9.894;2022-07-21T04:53:25;7.13;;;6.43;;
25946;SDS011;13745;51.470;9.894;2022-07-21T04:56:11;8.43;;;7.10;;
25946;SDS011;13745;51.470;9.894;2022-07-21T04:58:59;7.45;;;6.75;;
25946;SDS011;13745;51.470;9.894;2022-07-21T05:01:45;6.85;;;5.88;;
25946;SDS011;13745;51.470;9.894;2022-07-21T05:04:31;6.43;;;5.78;;
25946;SDS011;13745;51.470;9.894;2022-07-21T05:07:17;8.75;;;6.10;;
25946;SDS011;13745;51.470;9.894;2022-07-21T05:10:03;7.30;;;6.38;;
25946;SDS011;13745;51.470;9.894;2022-07-21T05:12:50;8.10;;;6.38;;
25946;SDS011;13745;51.470;9.894;2022-07-21T05:15:37;8.43;;;5.93;;
25946;SDS011;13745;51.470;9.894;2022-07-21T05:18:23;8.35;;;6.72;;
25946;SDS011;13745;51.470;9.894;2022-07-21T05:21:09;8.07;;;5.95;;
25946;SDS011;13745;51.470;9.894;2022-07-21T05:23:55;7.00;;;6.20;;
25946;SDS011;13745;51.470;9.894;2022-07-21T05:26:40;6.95;;;6.22;;
25946;SDS011;13745;51.470;9.894;2022-07-21T05:29:26;7.70;;;6.50;;
25946;SDS011;13745;51.470;9.894;2022-07-21T05:32:13;6.85;;;6.15;;
25946;SDS011;13745;51.470;9.894;2022-07-21T05:35:00;8.95;;;6.32;;
25946;SDS011;13745;51.470;9.894;2022-07-21T05:37:46;10.30;;;7.35;;
25946;SDS011;13745;51.470;9.894;2022-07-21T05:40:32;8.93;;;6.70;;
25946;SDS011;13745;51.470;9.894;2022-07-21T05:43:17;7.85;;;6.93;;
25946;SDS011;13745;51.470;9.894;2022-07-21T05:46:03;9.45;;;7.75;;
25946;SDS011;13745;51.470;9.894;2022-07-21T05:48:51;8.50;;;7.03;;
25946;SDS011;13745;51.470;9.894;2022-07-21T05:51:38;7.40;;;6.60;;
25946;SDS011;13745;51.470;9.894;2022-07-21T05:54:24;7.15;;;6.47;;
25946;SDS011;13745;51.470;9.894;2022-07-21T05:57:10;8.70;;;6.90;;
25946;SDS011;13745;51.470;9.894;2022-07-21T05:59:56;7.10;;;6.40;;
25946;SDS011;13745;51.470;9.894;2022-07-21T06:02:43;6.82;;;6.13;;
25946;SDS011;13745;51.470;9.894;2022-07-21T06:05:30;7.72;;;6.43;;
25946;SDS011;13745;51.470;9.894;2022-07-21T06:08:16;8.63;;;6.50;;
25946;SDS011;13745;51.470;9.894;2022-07-21T06:11:02;7.00;;;6.35;;
25946;SDS011;13745;51.470;9.894;2022-07-21T06:13:48;6.43;;;5.65;;
25946;SDS011;13745;51.470;9.894;2022-07-21T06:16:34;7.43;;;5.28;;
25946;SDS011;13745;51.470;9.894;2022-07-21T06:19:20;8.35;;;6.35;;
25946;SDS011;13745;51.470;9.894;2022-07-21T06:22:07;6.28;;;5.50;;
25946;SDS011;13745;51.470;9.894;2022-07-21T06:24:53;5.93;;;5.35;;
25946;SDS011;13745;51.470;9.894;2022-07-21T06:27:39;5.30;;;4.80;;
25946;SDS011;13745;51.470;9.894;2022-07-21T06:30:25;5.05;;;4.05;;
25946;SDS011;13745;51.470;9.894;2022-07-21T06:33:11;3.85;;;3.55;;
25946;SDS011;13745;51.470;9.894;2022-07-21T06:35:57;3.72;;;3.42;;
25946;SDS011;13745;51.470;9.894;2022-07-21T06:38:44;3.60;;;3.30;;
25946;SDS011;13745;51.470;9.894;2022-07-21T06:41:30;4.30;;;3.90;;
25946;SDS011;13745;51.470;9.894;2022-07-21T06:44:16;4.72;;;3.95;;
25946;SDS011;13745;51.470;9.894;2022-07-21T06:47:02;3.88;;;3.58;;
25946;SDS011;13745;51.470;9.894;2022-07-21T06:49:49;5.63;;;4.53;;
25946;SDS011;13745;51.470;9.894;2022-07-21T06:52:35;5.78;;;4.40;;
25946;SDS011;13745;51.470;9.894;2022-07-21T06:55:22;5.13;;;3.92;;
25946;SDS011;13745;51.470;9.894;2022-07-21T06:58:09;5.00;;;4.40;;
25946;SDS011;13745;51.470;9.894;2022-07-21T07:00:56;7.15;;;4.00;;
25946;SDS011;13745;51.470;9.894;2022-07-21T07:03:42;4.50;;;4.13;;
25946;SDS011;13745;51.470;9.894;2022-07-21T07:06:28;4.32;;;3.55;;
25946;SDS011;13745;51.470;9.894;2022-07-21T07:09:14;4.65;;;3.45;;
25946;SDS011;13745;51.470;9.894;2022-07-21T07:12:01;4.07;;;3.38;;
25946;SDS011;13745;51.470;9.894;2022-07-21T07:14:48;4.10;;;3.42;;
25946;SDS011;13745;51.470;9.894;2022-07-21T07:17:34;3.03;;;2.80;;
25946;SDS011;13745;51.470;9.894;2022-07-21T07:20:20;3.30;;;3.00;;
25946;SDS011;13745;51.470;9.894;2022-07-21T07:23:06;3.35;;;3.05;;
25946;SDS011;13745;51.470;9.894;2022-07-21T07:25:52;2.85;;;2.65;;
25946;SDS011;13745;51.470;9.894;2022-07-21T07:28:39;3.03;;;2.83;;
25946;SDS011;13745;51.470;9.894;2022-07-21T07:31:25;3.15;;;2.85;;
25946;SDS011;13745;51.470;9.894;2022-07-21T07:34:11;5.05;;;2.85;;
25946;SDS011;13745;51.470;9.894;2022-07-21T07:36:57;3.33;;;3.03;;
25946;SDS011;13745;51.470;9.894;2022-07-21T07:39:42;2.90;;;2.70;;
25946;SDS011;13745;51.470;9.894;2022-07-21T07:42:28;3.50;;;3.20;;
25946;SDS011;13745;51.470;9.894;2022-07-21T07:45:16;3.78;;;3.45;;
25946;SDS011;13745;51.470;9.894;2022-07-21T07:48:02;3.28;;;2.97;;
25946;SDS011;13745;51.470;9.894;2022-07-21T07:50:48;3.40;;;3.10;;
25946;SDS011;13745;51.470;9.894;2022-07-21T07:53:34;3.40;;;3.20;;
25946;SDS011;13745;51.470;9.894;2022-07-21T07:56:20;3.40;;;3.00;;
25946;SDS011;13745;51.470;9.894;2022-07-21T07:59:07;3.85;;;3.55;;
25946;SDS011;13745;51.470;9.894;2022-07-21T08:01:54;5.75;;;3.47;;
25946;SDS011;13745;51.470;9.894;2022-07-21T08:04:40;2.83;;;2.63;;
25946;SDS011;13745;51.470;9.894;2022-07-21T08:07:26;5.45;;;2.92;;
25946;SDS011;13745;51.470;9.894;2022-07-21T08:10:12;2.90;;;2.65;;
25946;SDS011;13745;51.470;9.894;2022-07-21T08:12:59;3.53;;;3.22;;
25946;SDS011;13745;51.470;9.894;2022-07-21T08:15:45;3.17;;;2.72;;
25946;SDS011;13745;51.470;9.894;2022-07-21T08:18:33;3.25;;;2.95;;
25946;SDS011;13745;51.470;9.894;2022-07-21T08:21:19;2.60;;;2.30;;
25946;SDS011;13745;51.470;9.894;2022-07-21T08:24:05;3.08;;;2.78;;
25946;SDS011;13745;51.470;9.894;2022-07-21T08:26:52;3.03;;;2.83;;
25946;SDS011;13745;51.470;9.894;2022-07-21T08:29:38;3.60;;;2.92;;
25946;SDS011;13745;51.470;9.894;2022-07-21T08:32:24;5.03;;;3.17;;
25946;SDS011;13745;51.470;9.894;2022-07-21T08:35:11;7.72;;;3.60;;
25946;SDS011;13745;51.470;9.894;2022-07-21T08:37:57;4.80;;;3.67;;
25946;SDS011;13745;51.470;9.894;2022-07-21T08:40:45;8.93;;;3.70;;
25946;SDS011;13745;51.470;9.894;2022-07-21T08:43:31;8.18;;;4.13;;
25946;SDS011;13745;51.470;9.894;2022-07-21T08:46:16;6.22;;;3.90;;
25946;SDS011;13745;51.470;9.894;2022-07-21T08:49:06;4.00;;;3.70;;
25946;SDS011;13745;51.470;9.894;2022-07-21T08:51:56;3.90;;;3.60;;
25946;SDS011;13745;51.470;9.894;2022-07-21T08:54:42;5.47;;;3.33;;
25946;SDS011;13745;51.470;9.894;2022-07-21T08:57:28;5.15;;;3.55;;
25946;SDS011;13745;51.470;9.894;2022-07-21T09:00:14;3.50;;;3.20;;
25946;SDS011;13745;51.470;9.894;2022-07-21T09:03:13;5.00;;;3.60;;
25946;SDS011;13745;51.470;9.894;2022-07-21T09:06:02;3.55;;;3.25;;
25946;SDS011;13745;51.470;9.894;2022-07-21T09:08:54;4.15;;;3.80;;
25946;SDS011;13745;51.470;9.894;2022-07-21T09:11:43;4.97;;;3.65;;
25946;SDS011;13745;51.470;9.894;2022-07-21T09:14:30;7.32;;;4.18;;
25946;SDS011;13745;51.470;9.894;2022-07-21T09:17:18;4.78;;;3.65;;
25946;SDS011;13745;51.470;9.894;2022-07-21T09:20:04;5.13;;;4.10;;
25946;SDS011;13745;51.470;9.894;2022-07-21T09:23:07;8.70;;;4.20;;
25946;SDS011;13745;51.470;9.894;2022-07-21T09:25:56;6.30;;;3.65;;
25946;SDS011;13745;51.470;9.894;2022-07-21T09:28:43;5.95;;;4.07;;
25946;SDS011;13745;51.470;9.894;2022-07-21T09:31:29;27.65;;;4.68;;
25946;SDS011;13745;51.470;9.894;2022-07-21T09:34:15;4.15;;;3.75;;
25946;SDS011;13745;51.470;9.894;2022-07-21T09:37:04;4.70;;;4.25;;
25946;SDS011;13745;51.470;9.894;2022-07-21T09:39:52;4.88;;;3.25;;
25946;SDS011;13745;51.470;9.894;2022-07-21T09:42:41;5.97;;;2.78;;
25946;SDS011;13745;51.470;9.894;2022-07-21T09:45:28;5.90;;;5.40;;
25946;SDS011;13745;51.470;9.894;2022-07-21T09:48:32;4.75;;;3.67;;
25946;SDS011;13745;51.470;9.894;2022-07-21T09:51:20;4.32;;;3.10;;
25946;SDS011;13745;51.470;9.894;2022-07-21T09:54:08;4.55;;;3.83;;
25946;SDS011;13745;51.470;9.894;2022-07-21T09:56:55;20.80;;;3.60;;
25946;SDS011;13745;51.470;9.894;2022-07-21T09:59:44;8.18;;;3.50;;
25946;SDS011;13745;51.470;9.894;2022-07-21T10:02:31;7.03;;;3.42;;
25946;SDS011;13745;51.470;9.894;2022-07-21T10:05:18;3.67;;;3.20;;
25946;SDS011;13745;51.470;9.894;2022-07-21T10:08:05;3.92;;;3.40;;
25946;SDS011;13745;51.470;9.894;2022-07-21T10:10:51;12.75;;;4.20;;
25946;SDS011;13745;51.470;9.894;2022-07-21T10:13:37;14.82;;;4.25;;
25946;SDS011;13745;51.470;9.894;2022-07-21T10:16:24;4.47;;;3.20;;
25946;SDS011;13745;51.470;9.894;2022-07-21T10:19:13;13.45;;;2.95;;
25946;SDS011;13745;51.470;9.894;2022-07-21T10:22:04;5.07;;;2.78;;
25946;SDS011;13745;51.470;9.894;2022-07-21T10:24:58;5.38;;;2.97;;
25946;SDS011;13745;51.470;9.894;2022-07-21T10:31:15;9.55;;;3.13;;
25946;SDS011;13745;51.470;9.894;2022-07-21T10:34:04;7.35;;;3.30;;
25946;SDS011;13745;51.470;9.894;2022-07-21T10:36:50;3.95;;;3.20;;
25946;SDS011;13745;51.470;9.894;2022-07-21T10:39:37;2.90;;;2.67;;
25946;SDS011;13745;51.470;9.894;2022-07-21T10:42:24;3.80;;;3.08;;
25946;SDS011;13745;51.470;9.894;2022-07-21T10:45:16;6.13;;;3.80;;
25946;SDS011;13745;51.470;9.894;2022-07-21T10:51:36;7.25;;;3.10;;
25946;SDS011;13745;51.470;9.894;2022-07-21T10:54:23;5.85;;;3.17;;
25946;SDS011;13745;51.470;9.894;2022-07-21T10:57:29;8.82;;;3.65;;
25946;SDS011;13745;51.470;9.894;2022-07-21T11:00:22;3.15;;;2.85;;
25946;SDS011;13745;51.470;9.894;2022-07-21T11:03:16;3.67;;;3.17;;
25946;SDS011;13745;51.470;9.894;2022-07-21T11:06:18;3.70;;;3.40;;
25946;SDS011;13745;51.470;9.894;2022-07-21T11:09:12;5.45;;;3.42;;
25946;SDS011;13745;51.470;9.894;2022-07-21T11:11:59;4.13;;;2.90;;
25946;SDS011;13745;51.470;9.894;2022-07-21T11:14:48;4.50;;;2.97;;
25946;SDS011;13745;51.470;9.894;2022-07-21T11:17:35;3.20;;;3.00;;
25946;SDS011;13745;51.470;9.894;2022-07-21T11:20:21;4.53;;;3.22;;
25946;SDS011;13745;51.470;9.894;2022-07-21T11:23:08;4.03;;;3.20;;
25946;SDS011;13745;51.470;9.894;2022-07-21T11:25:55;4.80;;;3.38;;
25946;SDS011;13745;51.470;9.894;2022-07-21T11:28:41;3.85;;;3.47;;
25946;SDS011;13745;51.470;9.894;2022-07-21T11:31:28;4.72;;;3.72;;
25946;SDS011;13745;51.470;9.894;2022-07-21T11:34:14;4.25;;;3.10;;
25946;SDS011;13745;51.470;9.894;2022-07-21T11:37:00;3.47;;;3.17;;
25946;SDS011;13745;51.470;9.894;2022-07-21T11:39:46;4.50;;;3.08;;
25946;SDS011;13745;51.470;9.894;2022-07-21T11:42:34;4.95;;;3.38;;
25946;SDS011;13745;51.470;9.894;2022-07-21T11:45:22;3.33;;;3.03;;
25946;SDS011;13745;51.470;9.894;2022-07-21T11:48:10;4.55;;;3.65;;
25946;SDS011;13745;51.470;9.894;2022-07-21T11:50:58;4.07;;;3.03;;
25946;SDS011;13745;51.470;9.894;2022-07-21T11:53:45;2.67;;;2.47;;
25946;SDS011;13745;51.470;9.894;2022-07-21T11:56:35;2.53;;;2.30;;
25946;SDS011;13745;51.470;9.894;2022-07-21T11:59:24;2.85;;;2.65;;
25946;SDS011;13745;51.470;9.894;2022-07-21T12:02:11;2.72;;;2.53;;
25946;SDS011;13745;51.470;9.894;2022-07-21T12:04:59;3.65;;;2.65;;
25946;SDS011;13745;51.470;9.894;2022-07-21T12:07:46;2.85;;;2.65;;
25946;SDS011;13745;51.470;9.894;2022-07-21T12:10:33;2.78;;;2.58;;
25946;SDS011;13745;51.470;9.894;2022-07-21T12:13:21;2.78;;;2.53;;
25946;SDS011;13745;51.470;9.894;2022-07-21T12:16:08;7.47;;;2.90;;
25946;SDS011;13745;51.470;9.894;2022-07-21T12:22:01;4.85;;;2.78;;
25946;SDS011;13745;51.470;9.894;2022-07-21T12:24:48;4.35;;;2.78;;
25946;SDS011;13745;51.470;9.894;2022-07-21T12:27:36;4.05;;;3.03;;
25946;SDS011;13745;51.470;9.894;2022-07-21T12:30:30;2.60;;;2.20;;
25946;SDS011;13745;51.470;9.894;2022-07-21T12:33:20;3.42;;;2.25;;
25946;SDS011;13745;51.470;9.894;2022-07-21T12:36:12;3.13;;;2.47;;
25946;SDS011;13745;51.470;9.894;2022-07-21T12:38:58;3.22;;;2.05;;
25946;SDS011;13745;51.470;9.894;2022-07-21T12:42:27;3.45;;;1.83;;
25946;SDS011;13745;51.470;9.894;2022-07-21T12:45:15;5.70;;;1.63;;
25946;SDS011;13745;51.470;9.894;2022-07-21T12:48:06;1.88;;;1.55;;
25946;SDS011;13745;51.470;9.894;2022-07-21T12:50:59;1.88;;;1.50;;
25946;SDS011;13745;51.470;9.894;2022-07-21T12:53:50;1.83;;;1.73;;
25946;SDS011;13745;51.470;9.894;2022-07-21T12:56:37;3.08;;;1.80;;
25946;SDS011;13745;51.470;9.894;2022-07-21T12:59:24;4.07;;;2.00;;
25946;SDS011;13745;51.470;9.894;2022-07-21T13:02:10;3.35;;;2.00;;
25946;SDS011;13745;51.470;9.894;2022-07-21T13:04:56;2.40;;;2.20;;
25946;SDS011;13745;51.470;9.894;2022-07-21T13:07:43;4.45;;;2.42;;
25946;SDS011;13745;51.470;9.894;2022-07-21T13:10:29;2.13;;;1.90;;
25946;SDS011;13745;51.470;9.894;2022-07-21T13:13:15;4.07;;;2.70;;
25946;SDS011;13745;51.470;9.894;2022-07-21T13:16:00;3.75;;;2.20;;
25946;SDS011;13745;51.470;9.894;2022-07-21T13:18:46;4.45;;;2.03;;
25946;SDS011;13745;51.470;9.894;2022-07-21T13:21:32;2.08;;;1.88;;
25946;SDS011;13745;51.470;9.894;2022-07-21T13:24:19;5.82;;;1.80;;
25946;SDS011;13745;51.470;9.894;2022-07-21T13:27:05;6.75;;;1.50;;
25946;SDS011;13745;51.470;9.894;2022-07-21T13:29:52;2.40;;;1.70;;
25946;SDS011;13745;51.470;9.894;2022-07-21T13:32:37;1.77;;;1.38;;
25946;SDS011;13745;51.470;9.894;2022-07-21T13:35:23;2.25;;;1.90;;
25946;SDS011;13745;51.470;9.894;2022-07-21T13:38:09;2.42;;;1.50;;
25946;SDS011;13745;51.470;9.894;2022-07-21T13:40:57;2.75;;;1.80;;
25946;SDS011;13745;51.470;9.894;2022-07-21T13:43:43;2.22;;;2.00;;
25946;SDS011;13745;51.470;9.894;2022-07-21T13:46:29;2.10;;;1.90;;
25946;SDS011;13745;51.470;9.894;2022-07-21T13:49:15;2.05;;;1.95;;
25946;SDS011;13745;51.470;9.894;2022-07-21T13:52:01;3.35;;;2.00;;
25946;SDS011;13745;51.470;9.894;2022-07-21T13:54:47;2.60;;;2.10;;
25946;SDS011;13745;51.470;9.894;2022-07-21T13:57:34;2.63;;;2.05;;
25946;SDS011;13745;51.470;9.894;2022-07-21T14:00:20;3.95;;;1.98;;
25946;SDS011;13745;51.470;9.894;2022-07-21T14:03:06;4.47;;;2.40;;
25946;SDS011;13745;51.470;9.894;2022-07-21T14:05:52;2.80;;;2.22;;
25946;SDS011;13745;51.470;9.894;2022-07-21T14:08:38;4.28;;;2.03;;
25946;SDS011;13745;51.470;9.894;2022-07-21T14:11:25;2.10;;;2.00;;
25946;SDS011;13745;51.470;9.894;2022-07-21T14:14:13;1.90;;;1.73;;
25946;SDS011;13745;51.470;9.894;2022-07-21T14:17:05;3.33;;;1.85;;
25946;SDS011;13745;51.470;9.894;2022-07-21T14:19:51;2.97;;;1.80;;
25946;SDS011;13745;51.470;9.894;2022-07-21T14:22:36;1.85;;;1.75;;
25946;SDS011;13745;51.470;9.894;2022-07-21T14:25:22;2.00;;;1.75;;
25946;SDS011;13745;51.470;9.894;2022-07-21T14:28:08;2.35;;;1.30;;
25946;SDS011;13745;51.470;9.894;2022-07-21T14:30:55;2.50;;;1.45;;
25946;SDS011;13745;51.470;9.894;2022-07-21T14:33:41;2.33;;;1.40;;
25946;SDS011;13745;51.470;9.894;2022-07-21T14:36:27;2.53;;;1.70;;
25946;SDS011;13745;51.470;9.894;2022-07-21T14:39:13;1.73;;;1.40;;
25946;SDS011;13745;51.470;9.894;2022-07-21T14:41:59;2.13;;;1.40;;
25946;SDS011;13745;51.470;9.894;2022-07-21T14:44:45;1.30;;;1.10;;
25946;SDS011;13745;51.470;9.894;2022-07-21T14:47:32;4.15;;;1.67;;
25946;SDS011;13745;51.470;9.894;2022-07-21T14:50:19;1.77;;;1.60;;
25946;SDS011;13745;51.470;9.894;2022-07-21T14:53:04;2.25;;;1.40;;
25946;SDS011;13745;51.470;9.894;2022-07-21T14:55:51;1.55;;;1.30;;
25946;SDS011;13745;51.470;9.894;2022-07-21T14:58:37;2.67;;;1.88;;
25946;SDS011;13745;51.470;9.894;2022-07-21T15:01:23;1.73;;;1.48;;
25946;SDS011;13745;51.470;9.894;2022-07-21T15:04:11;2.15;;;1.58;;
25946;SDS011;13745;51.470;9.894;2022-07-21T15:06:57;1.98;;;1.25;;
25946;SDS011;13745;51.470;9.894;2022-07-21T15:09:43;3.03;;;1.55;;
25946;SDS011;13745;51.470;9.894;2022-07-21T15:12:29;1.92;;;1.40;;
25946;SDS011;13745;51.470;9.894;2022-07-21T15:15:15;3.72;;;2.10;;
25946;SDS011;13745;51.470;9.894;2022-07-21T15:18:01;1.88;;;1.60;;
25946;SDS011;13745;51.470;9.894;2022-07-21T15:20:48;2.05;;;1.85;;
25946;SDS011;13745;51.470;9.894;2022-07-21T15:23:34;2.30;;;1.73;;
25946;SDS011;13745;51.470;9.894;2022-07-21T15:26:20;2.50;;;1.50;;
25946;SDS011;13745;51.470;9.894;2022-07-21T15:29:05;2.20;;;1.80;;
25946;SDS011;13745;51.470;9.894;2022-07-21T15:31:51;3.00;;;1.60;;
25946;SDS011;13745;51.470;9.894;2022-07-21T15:34:37;2.22;;;2.00;;
25946;SDS011;13745;51.470;9.894;2022-07-21T15:37:25;1.70;;;1.60;;
25946;SDS011;13745;51.470;9.894;2022-07-21T15:40:11;2.20;;;1.50;;
25946;SDS011;13745;51.470;9.894;2022-07-21T15:42:57;3.50;;;1.85;;
25946;SDS011;13745;51.470;9.894;2022-07-21T15:45:43;3.72;;;1.75;;
25946;SDS011;13745;51.470;9.894;2022-07-21T15:48:29;3.53;;;2.10;;
25946;SDS011;13745;51.470;9.894;2022-07-21T15:51:15;4.53;;;1.48;;
25946;SDS011;13745;51.470;9.894;2022-07-21T15:54:02;2.45;;;2.08;;
25946;SDS011;13745;51.470;9.894;2022-07-21T15:56:48;2.45;;;1.70;;
25946;SDS011;13745;51.470;9.894;2022-07-21T15:59:34;1.98;;;1.88;;
25946;SDS011;13745;51.470;9.894;2022-07-21T16:02:21;1.98;;;1.70;;
25946;SDS011;13745;51.470;9.894;2022-07-21T16:05:07;2.05;;;1.88;;
25946;SDS011;13745;51.470;9.894;2022-07-21T16:07:53;3.92;;;2.17;;
25946;SDS011;13745;51.470;9.894;2022-07-21T16:10:41;1.58;;;1.48;;
25946;SDS011;13745;51.470;9.894;2022-07-21T16:13:27;2.50;;;2.00;;
25946;SDS011;13745;51.470;9.894;2022-07-21T16:16:13;3.60;;;1.80;;
25946;SDS011;13745;51.470;9.894;2022-07-21T16:18:59;3.88;;;1.77;;
25946;SDS011;13745;51.470;9.894;2022-07-21T16:21:45;2.60;;;2.00;;
25946;SDS011;13745;51.470;9.894;2022-07-21T16:24:31;2.67;;;2.03;;
25946;SDS011;13745;51.470;9.894;2022-07-21T16:27:19;2.20;;;2.00;;
25946;SDS011;13745;51.470;9.894;2022-07-21T16:30:05;5.80;;;1.80;;
25946;SDS011;13745;51.470;9.894;2022-07-21T16:32:52;3.20;;;2.00;;
25946;SDS011;13745;51.470;9.894;2022-07-21T16:35:38;2.38;;;1.92;;
25946;SDS011;13745;51.470;9.894;2022-07-21T16:38:24;2.50;;;2.30;;
25946;SDS011;13745;51.470;9.894;2022-07-21T16:41:10;2.55;;;2.35;;
25946;SDS011;13745;51.470;9.894;2022-07-21T16:43:57;3.55;;;2.50;;
25946;SDS011;13745;51.470;9.894;2022-07-21T16:46:43;4.07;;;2.70;;
25946;SDS011;13745;51.470;9.894;2022-07-21T16:49:29;3.17;;;2.42;;
25946;SDS011;13745;51.470;9.894;2022-07-21T16:52:15;2.75;;;2.55;;
25946;SDS011;13745;51.470;9.894;2022-07-21T16:55:01;4.43;;;2.90;;
25946;SDS011;13745;51.470;9.894;2022-07-21T16:57:47;4.15;;;3.08;;